Terminal Aerodrome Forecast
Issued by NWS

Home | Current Version | Previous Version | Text Only | Print | Product List | Glossary On
Versions: 1 2 3 4 5 6 7 8 9 10 11 12
000
FTAK31 PAFA 171738
TAFAFA
TAF
PAFA 171738Z 1718/1824 07005KT P6SM FEW070 FEW100 SCT200
     FM172300 VRB05KT P6SM VCSH SCT050 BKN100
     FM180300 04005KT P6SM FEW050 BKN100=

USA.gov is the U.S. government's official web portal to all federal, state and local government web resources and services.